createdAt,value
2023-03-07T00:01:34.449Z,5.13
2023-03-07T00:04:01.402Z,5.30
2023-03-07T00:06:28.983Z,5.17
2023-03-07T00:09:01.242Z,6.03
2023-03-07T00:11:29.048Z,4.90
2023-03-07T00:13:56.062Z,4.83
2023-03-07T00:16:24.376Z,3.10
2023-03-07T00:18:51.681Z,6.87
2023-03-07T00:21:21.047Z,3.13
2023-03-07T00:23:48.505Z,2.67
2023-03-07T00:26:21.286Z,3.43
2023-03-07T00:28:50.073Z,2.70
2023-03-07T00:31:18.050Z,2.97
2023-03-07T00:33:44.923Z,3.40
2023-03-07T00:36:17.271Z,3.33
2023-03-07T00:38:44.485Z,3.20
2023-03-07T00:41:14.649Z,2.43
2023-03-07T00:43:41.654Z,6.80
2023-03-07T00:46:09.537Z,1.50
2023-03-07T00:48:38.913Z,3.00
2023-03-07T00:51:08.047Z,2.37
2023-03-07T00:53:35.920Z,2.30
2023-03-07T00:56:20.355Z,2.10
2023-03-07T00:58:47.875Z,1.87
2023-03-07T01:01:17.683Z,3.20
2023-03-07T01:03:45.245Z,1.73
2023-03-07T01:06:17.514Z,4.60
2023-03-07T01:08:45.147Z,1.10
2023-03-07T01:11:13.212Z,2.30
2023-03-07T01:13:40.314Z,2.33
2023-03-07T01:16:15.356Z,2.73
2023-03-07T01:18:43.432Z,2.03
2023-03-07T01:21:17.840Z,3.53
2023-03-07T01:23:45.272Z,4.70
2023-03-07T01:26:21.496Z,2.23
2023-03-07T01:28:49.954Z,2.80
2023-03-07T01:31:16.961Z,3.10
2023-03-07T01:33:43.906Z,4.83
2023-03-07T01:36:21.513Z,2.97
2023-03-07T01:38:49.475Z,4.87
2023-03-07T01:41:16.700Z,4.27
2023-03-07T01:43:43.982Z,5.27
2023-03-07T01:46:26.977Z,5.07
2023-03-07T01:49:21.982Z,5.87
2023-03-07T01:51:53.034Z,6.73
2023-03-07T01:54:22.536Z,6.67
2023-03-07T01:56:49.484Z,7.40
2023-03-07T01:59:22.496Z,7.37
2023-03-07T02:01:50.363Z,7.93
2023-03-07T02:04:43.403Z,7.83
2023-03-07T02:07:11.156Z,9.13
2023-03-07T02:09:39.238Z,10.87
2023-03-07T02:12:08.293Z,11.80
2023-03-07T02:14:35.532Z,11.93
2023-03-07T02:17:04.023Z,10.57
2023-03-07T02:19:46.582Z,11.10
2023-03-07T02:22:17.758Z,11.13
2023-03-07T02:24:59.209Z,11.10
2023-03-07T02:27:27.574Z,12.03
2023-03-07T02:29:54.414Z,11.50
2023-03-07T02:32:21.638Z,12.30
2023-03-07T02:34:48.599Z,11.43
2023-03-07T02:37:15.385Z,10.57
2023-03-07T02:39:44.160Z,14.37
2023-03-07T02:42:32.916Z,10.87
2023-03-07T02:45:01.800Z,11.07
2023-03-07T02:47:29.020Z,10.47
2023-03-07T02:49:55.929Z,10.17
2023-03-07T02:52:23.154Z,8.93
2023-03-07T02:54:49.972Z,8.90
2023-03-07T02:57:16.869Z,10.97
2023-03-07T02:59:43.649Z,11.13
2023-03-07T03:02:10.438Z,9.07
2023-03-07T03:04:37.285Z,9.63
2023-03-07T03:07:04.186Z,9.87
2023-03-07T03:09:31.543Z,9.97
2023-03-07T03:11:58.699Z,7.57
2023-03-07T03:14:25.539Z,8.33
2023-03-07T03:16:53.361Z,7.97
2023-03-07T03:19:20.653Z,5.97
2023-03-07T03:21:48.725Z,8.13
2023-03-07T03:24:15.702Z,8.73
2023-03-07T03:26:42.614Z,6.53
2023-03-07T03:29:09.915Z,6.23
2023-03-07T03:31:36.862Z,6.13
2023-03-07T03:34:05.172Z,5.50
2023-03-07T03:36:32.066Z,5.10
2023-03-07T03:38:59.744Z,6.60
2023-03-07T03:41:26.946Z,8.10
2023-03-07T03:43:54.302Z,5.53
2023-03-07T03:46:21.304Z,6.07
2023-03-07T03:48:53.365Z,6.47
2023-03-07T03:51:21.136Z,9.67
2023-03-07T03:53:48.254Z,5.83
2023-03-07T03:56:21.959Z,7.87
2023-03-07T03:58:55.340Z,7.27
2023-03-07T04:01:24.792Z,5.57
2023-03-07T04:03:53.381Z,5.10
2023-03-07T04:06:23.395Z,5.50
2023-03-07T04:08:51.803Z,5.13
2023-03-07T04:11:19.305Z,4.57
2023-03-07T04:13:46.351Z,4.60
2023-03-07T04:16:13.461Z,5.50
2023-03-07T04:18:40.456Z,4.67
2023-03-07T04:21:07.623Z,3.83
2023-03-07T04:23:34.909Z,6.00
2023-03-07T04:26:03.631Z,5.17
2023-03-07T04:28:46.015Z,3.73
2023-03-07T04:31:18.081Z,6.87
2023-03-07T04:33:45.789Z,7.43
2023-03-07T04:36:13.622Z,3.67
2023-03-07T04:38:41.132Z,4.20
2023-03-07T04:41:10.994Z,5.43
2023-03-07T04:43:37.866Z,6.53
2023-03-07T04:46:05.112Z,4.67
2023-03-07T04:48:32.065Z,6.00
2023-03-07T04:50:58.887Z,3.97
2023-03-07T04:53:26.098Z,4.17
2023-03-07T04:56:05.546Z,3.60
2023-03-07T04:58:33.513Z,4.87
2023-03-07T05:01:01.636Z,3.43
2023-03-07T05:03:29.540Z,3.83
2023-03-07T05:06:00.845Z,6.17
2023-03-07T05:08:27.770Z,5.00
2023-03-07T05:10:54.882Z,6.77
2023-03-07T05:13:21.735Z,5.73
2023-03-07T05:15:53.878Z,5.77
2023-03-07T05:18:20.852Z,3.37
2023-03-07T05:20:48.320Z,6.53
2023-03-07T05:23:15.355Z,8.30
2023-03-07T05:25:43.573Z,4.17
2023-03-07T05:28:10.678Z,6.23
2023-03-07T05:30:37.497Z,6.17
2023-03-07T05:33:04.550Z,4.87
2023-03-07T05:35:31.417Z,6.67
2023-03-07T05:37:58.304Z,6.13
2023-03-07T05:40:25.143Z,4.30
2023-03-07T05:42:52.043Z,6.33
2023-03-07T05:45:20.325Z,4.50
2023-03-07T05:47:47.397Z,4.63
2023-03-07T05:50:14.540Z,4.87
2023-03-07T05:52:41.526Z,5.87
2023-03-07T05:55:09.012Z,6.63
2023-03-07T05:57:35.884Z,5.93
2023-03-07T06:00:02.933Z,4.83
2023-03-07T06:02:29.872Z,4.97
2023-03-07T06:04:56.722Z,6.10
2023-03-07T06:07:23.481Z,6.07
2023-03-07T06:09:50.336Z,5.00
2023-03-07T06:12:17.119Z,5.93
2023-03-07T06:14:43.906Z,8.00
2023-03-07T06:17:11.160Z,6.30
2023-03-07T06:19:37.972Z,4.63
2023-03-07T06:22:04.877Z,5.70
2023-03-07T06:24:31.637Z,4.93
2023-03-07T06:26:59.822Z,5.20
2023-03-07T06:29:26.778Z,7.00
2023-03-07T06:31:53.615Z,5.83
2023-03-07T06:34:20.443Z,4.87
2023-03-07T06:36:48.732Z,7.17
2023-03-07T06:39:21.111Z,5.80
2023-03-07T06:41:49.451Z,5.97
2023-03-07T06:44:17.461Z,5.13
2023-03-07T06:46:44.933Z,5.73
2023-03-07T06:49:11.884Z,5.50
2023-03-07T06:51:38.795Z,6.07
2023-03-07T06:54:05.689Z,8.60
2023-03-07T06:56:34.350Z,9.83
2023-03-07T06:59:01.421Z,8.23
2023-03-07T07:01:28.375Z,6.87
2023-03-07T07:03:55.248Z,11.67
2023-03-07T07:06:22.108Z,9.57
2023-03-07T07:08:48.960Z,11.10
2023-03-07T07:11:15.866Z,12.47
2023-03-07T07:13:42.628Z,11.53
2023-03-07T07:16:10.006Z,10.10
2023-03-07T07:18:36.911Z,9.30
2023-03-07T07:21:05.298Z,9.20
2023-03-07T07:23:32.160Z,7.90
2023-03-07T07:25:59.103Z,6.63
2023-03-07T07:28:26.007Z,5.90
2023-03-07T07:30:52.951Z,6.33
2023-03-07T07:33:20.654Z,5.50
2023-03-07T07:35:47.763Z,3.83
2023-03-07T07:38:14.681Z,2.57
2023-03-07T07:40:41.631Z,4.03
2023-03-07T07:43:16.688Z,3.70
2023-03-07T07:45:43.614Z,2.87
2023-03-07T07:48:10.399Z,2.83
2023-03-07T07:50:37.344Z,9.60
2023-03-07T07:53:04.183Z,5.07
2023-03-07T07:55:31.107Z,6.93
2023-03-07T07:57:58.055Z,2.23
2023-03-07T08:00:25.178Z,2.90
2023-03-07T08:02:52.015Z,3.80
2023-03-07T08:05:20.795Z,2.77
2023-03-07T08:07:48.116Z,2.30
2023-03-07T08:10:16.025Z,2.50
2023-03-07T08:12:51.392Z,3.17
2023-03-07T08:15:21.367Z,3.30
2023-03-07T08:17:52.406Z,4.57
2023-03-07T08:20:22.350Z,6.80
2023-03-07T08:22:50.535Z,5.43
2023-03-07T08:25:21.833Z,6.27
2023-03-07T08:27:53.008Z,7.20
2023-03-07T08:30:20.069Z,7.60
2023-03-07T08:32:50.604Z,4.23
2023-03-07T08:35:18.164Z,4.47
2023-03-07T08:37:45.120Z,2.60
2023-03-07T08:40:12.480Z,2.23
2023-03-07T08:42:39.389Z,2.17
2023-03-07T08:45:06.484Z,3.30
2023-03-07T08:47:33.332Z,2.57
2023-03-07T08:50:00.167Z,1.70
2023-03-07T08:52:27.130Z,2.83
2023-03-07T08:54:54.202Z,2.70
2023-03-07T08:57:21.060Z,1.63
2023-03-07T08:59:47.853Z,1.87
2023-03-07T09:02:14.740Z,2.03
2023-03-07T09:04:41.761Z,2.97
2023-03-07T09:07:08.555Z,1.90
2023-03-07T09:09:35.380Z,3.20
2023-03-07T09:12:02.227Z,1.80
2023-03-07T09:14:29.122Z,2.73
2023-03-07T09:16:56.026Z,2.07
2023-03-07T09:19:23.825Z,4.80
2023-03-07T09:21:50.707Z,2.33
2023-03-07T09:24:17.507Z,3.10
2023-03-07T09:26:44.343Z,2.30
2023-03-07T09:29:11.256Z,3.27
2023-03-07T09:31:38.138Z,2.30
2023-03-07T09:34:05.602Z,3.70
2023-03-07T09:36:32.398Z,3.63
2023-03-07T09:38:59.440Z,1.90
2023-03-07T09:41:48.161Z,2.87
2023-03-07T09:44:32.453Z,2.87
2023-03-07T09:47:28.357Z,2.20
2023-03-07T09:49:55.995Z,3.77
2023-03-07T09:52:28.566Z,2.57
2023-03-07T09:55:01.770Z,3.20
2023-03-07T09:57:50.301Z,3.00
2023-03-07T10:00:22.467Z,2.83
2023-03-07T10:03:08.109Z,2.90
2023-03-07T10:05:50.934Z,2.00
2023-03-07T10:08:24.114Z,3.17
2023-03-07T10:11:19.851Z,4.63
2023-03-07T10:13:58.653Z,3.27
2023-03-07T10:16:43.559Z,3.50
2023-03-07T10:19:19.691Z,5.87
2023-03-07T10:22:10.305Z,3.30
2023-03-07T10:25:01.167Z,4.67
2023-03-07T10:27:30.612Z,6.53
2023-03-07T10:30:00.690Z,4.13
2023-03-07T10:32:41.364Z,4.20
2023-03-07T10:35:11.374Z,3.60
2023-03-07T10:37:52.423Z,3.17
2023-03-07T10:40:34.898Z,3.60
2023-03-07T10:43:01.720Z,3.77
2023-03-07T10:45:30.919Z,2.63
2023-03-07T10:48:09.937Z,3.07
2023-03-07T10:50:55.421Z,2.77
2023-03-07T10:53:34.060Z,3.10
2023-03-07T10:56:14.065Z,3.00
2023-03-07T10:58:59.833Z,3.67
2023-03-07T11:01:28.099Z,4.37
2023-03-07T11:03:59.519Z,3.80
2023-03-07T11:06:40.093Z,2.97
2023-03-07T11:09:36.384Z,3.20
2023-03-07T11:12:06.170Z,5.07
2023-03-07T11:14:53.828Z,2.90
2023-03-07T11:17:22.415Z,3.70
2023-03-07T11:19:54.174Z,4.50
2023-03-07T11:22:35.743Z,4.53
2023-03-07T11:25:14.784Z,4.17
2023-03-07T11:27:54.525Z,4.47
2023-03-07T11:30:32.989Z,7.30
2023-03-07T11:33:08.165Z,7.57
2023-03-07T11:36:02.153Z,7.40
2023-03-07T11:39:13.583Z,6.87
2023-03-07T11:41:47.907Z,6.57
2023-03-07T11:44:32.740Z,6.83
2023-03-07T11:47:13.755Z,6.47
2023-03-07T11:49:58.099Z,5.87
2023-03-07T11:52:36.955Z,6.33
2023-03-07T11:55:25.740Z,4.43
2023-03-07T11:58:02.920Z,5.17
2023-03-07T12:00:58.936Z,5.03
2023-03-07T12:03:54.044Z,7.10
2023-03-07T12:06:35.903Z,5.43
2023-03-07T12:09:24.315Z,5.20
2023-03-07T12:12:16.427Z,4.93
2023-03-07T12:15:37.719Z,6.73
2023-03-07T12:18:10.053Z,5.53
2023-03-07T12:21:07.108Z,7.90
2023-03-07T12:23:39.225Z,7.27
2023-03-07T12:26:27.734Z,7.70
2023-03-07T12:29:03.964Z,8.30
2023-03-07T12:31:45.228Z,6.00
2023-03-07T12:34:15.351Z,7.70
2023-03-07T12:36:51.794Z,8.10
2023-03-07T12:39:55.500Z,10.10
2023-03-07T12:42:44.292Z,9.63
2023-03-07T12:45:20.228Z,9.07
2023-03-07T12:48:13.729Z,11.87
2023-03-07T12:51:03.586Z,11.93
2023-03-07T12:53:42.771Z,11.63
2023-03-07T12:56:12.322Z,12.23
2023-03-07T12:58:42.215Z,10.73
2023-03-07T13:01:25.569Z,11.43
2023-03-07T13:04:12.922Z,12.53
2023-03-07T13:06:41.792Z,12.40
2023-03-07T13:09:24.476Z,13.70
2023-03-07T13:12:29.777Z,7.23
2023-03-07T13:15:05.389Z,5.33
2023-03-07T13:17:35.082Z,6.27
2023-03-07T13:20:15.189Z,5.37
2023-03-07T13:22:42.490Z,4.20
2023-03-07T13:25:27.770Z,5.43
2023-03-07T13:28:00.010Z,5.93
2023-03-07T13:30:32.038Z,3.17
2023-03-07T13:33:26.275Z,3.77
2023-03-07T13:35:58.662Z,3.03
2023-03-07T13:38:44.317Z,4.87
2023-03-07T13:41:12.815Z,3.87
2023-03-07T13:43:45.406Z,7.50
2023-03-07T13:46:29.310Z,8.47
2023-03-07T13:48:56.131Z,3.73
2023-03-07T13:51:23.132Z,5.73
2023-03-07T13:53:53.193Z,4.63
2023-03-07T13:56:27.369Z,4.33
2023-03-07T13:59:24.604Z,4.80
2023-03-07T14:02:07.510Z,3.87
2023-03-07T14:04:55.357Z,7.23
2023-03-07T14:07:31.799Z,5.10
2023-03-07T14:10:21.533Z,6.87
2023-03-07T14:13:14.208Z,5.10
2023-03-07T14:16:07.514Z,1.97
2023-03-07T14:18:48.560Z,1.17
2023-03-07T14:21:32.386Z,1.37
2023-03-07T14:24:39.368Z,2.63
2023-03-07T14:27:13.344Z,1.83
2023-03-07T14:29:49.610Z,0.87
2023-03-07T14:32:28.921Z,1.57
2023-03-07T14:34:56.875Z,0.80
2023-03-07T14:37:32.699Z,1.43
2023-03-07T14:39:59.424Z,1.87
2023-03-07T14:43:03.693Z,1.93
2023-03-07T14:45:43.928Z,1.13
2023-03-07T14:48:30.478Z,1.60
2023-03-07T14:51:00.894Z,1.63
2023-03-07T14:53:30.550Z,1.63
2023-03-07T14:55:59.529Z,1.70
2023-03-07T14:58:30.324Z,1.87
2023-03-07T15:00:58.036Z,2.40
2023-03-07T15:03:24.871Z,1.80
2023-03-07T15:05:55.106Z,1.10
2023-03-07T15:08:30.847Z,2.27
2023-03-07T15:11:11.115Z,4.47
2023-03-07T15:13:45.926Z,2.00
2023-03-07T15:16:26.862Z,3.23
2023-03-07T15:19:02.461Z,2.83
2023-03-07T15:21:36.181Z,2.37
2023-03-07T15:24:03.439Z,3.10
2023-03-07T15:26:31.754Z,3.33
2023-03-07T15:29:06.438Z,3.67
2023-03-07T15:31:49.953Z,4.77
2023-03-07T15:34:33.409Z,4.87
2023-03-07T15:37:22.986Z,4.00
2023-03-07T15:40:00.849Z,3.53
2023-03-07T15:42:29.504Z,3.10
2023-03-07T15:45:00.287Z,3.23
2023-03-07T15:47:28.822Z,3.63
2023-03-07T15:50:06.356Z,4.43
2023-03-07T15:52:38.320Z,5.63
2023-03-07T15:55:15.789Z,4.27
2023-03-07T15:57:56.239Z,6.10
2023-03-07T16:00:37.791Z,6.53
2023-03-07T16:03:16.727Z,3.00
2023-03-07T16:05:43.998Z,3.27
2023-03-07T16:08:14.104Z,3.80
2023-03-07T16:10:49.573Z,3.00
2023-03-07T16:13:18.928Z,4.30
2023-03-07T16:15:45.949Z,2.53
2023-03-07T16:18:25.036Z,1.93
2023-03-07T16:20:51.847Z,3.67
2023-03-07T16:23:18.688Z,5.07
2023-03-07T16:25:45.728Z,4.53
2023-03-07T16:28:14.018Z,2.23
2023-03-07T16:30:44.379Z,3.40
2023-03-07T16:33:14.606Z,3.00
2023-03-07T16:35:41.486Z,2.27
2023-03-07T16:38:09.143Z,1.33
2023-03-07T16:40:41.134Z,1.10
2023-03-07T16:43:23.776Z,2.50
2023-03-07T16:45:50.579Z,0.90
2023-03-07T16:48:17.788Z,2.43
2023-03-07T16:50:44.534Z,2.23
2023-03-07T16:53:11.330Z,2.33
2023-03-07T16:55:38.932Z,2.40
2023-03-07T16:58:07.197Z,2.23
2023-03-07T17:00:34.169Z,2.00
2023-03-07T17:03:03.349Z,2.00
2023-03-07T17:05:30.564Z,3.33
2023-03-07T17:07:58.936Z,2.83
2023-03-07T17:10:26.902Z,1.50
2023-03-07T17:12:56.083Z,1.37
2023-03-07T17:15:31.101Z,3.53
2023-03-07T17:17:59.162Z,2.43
2023-03-07T17:20:26.296Z,4.37
2023-03-07T17:22:53.875Z,2.03
2023-03-07T17:25:21.501Z,4.43
2023-03-07T17:28:11.447Z,2.50
2023-03-07T17:30:42.217Z,1.20
2023-03-07T17:33:11.385Z,2.03
2023-03-07T17:35:38.173Z,1.80
2023-03-07T17:38:05.025Z,1.43
2023-03-07T17:40:31.941Z,3.13
2023-03-07T17:42:59.429Z,3.53
2023-03-07T17:45:26.210Z,4.00
2023-03-07T17:47:54.050Z,3.97
2023-03-07T17:50:25.657Z,3.27
2023-03-07T17:52:54.403Z,1.30
2023-03-07T17:55:25.005Z,2.17
2023-03-07T17:57:52.292Z,1.70
2023-03-07T18:00:21.028Z,2.97
2023-03-07T18:02:48.086Z,2.20
2023-03-07T18:05:15.062Z,6.47
2023-03-07T18:07:42.154Z,4.10
2023-03-07T18:10:10.629Z,5.57
2023-03-07T18:12:39.292Z,3.60
2023-03-07T18:15:11.240Z,3.90
2023-03-07T18:17:47.451Z,7.33
2023-03-07T18:20:15.699Z,3.43
2023-03-07T18:22:42.841Z,9.67
2023-03-07T18:25:13.261Z,5.87
2023-03-07T18:27:40.154Z,5.70
2023-03-07T18:30:07.491Z,4.33
2023-03-07T18:32:34.564Z,5.27
2023-03-07T18:35:01.467Z,6.67
2023-03-07T18:37:28.926Z,4.90
2023-03-07T18:39:55.941Z,6.17
2023-03-07T18:42:22.833Z,5.93
2023-03-07T18:44:49.623Z,8.73
2023-03-07T18:47:16.416Z,6.43
2023-03-07T18:49:43.278Z,7.87
2023-03-07T18:52:10.051Z,5.67
2023-03-07T18:54:36.804Z,7.20
2023-03-07T18:57:03.732Z,4.93
2023-03-07T18:59:30.868Z,7.27
2023-03-07T19:02:02.922Z,6.57
2023-03-07T19:04:31.393Z,5.67
2023-03-07T19:07:00.566Z,6.90
2023-03-07T19:09:27.881Z,4.80
2023-03-07T19:11:54.746Z,5.40
2023-03-07T19:14:21.596Z,4.37
2023-03-07T19:16:48.569Z,3.77
2023-03-07T19:19:15.457Z,4.77
2023-03-07T19:21:42.629Z,6.30
2023-03-07T19:24:11.835Z,6.17
2023-03-07T19:26:40.090Z,9.70
2023-03-07T19:29:06.999Z,5.70
2023-03-07T19:31:35.005Z,5.63
2023-03-07T19:34:03.397Z,5.40
2023-03-07T19:36:32.133Z,8.23
2023-03-07T19:38:59.476Z,6.23
2023-03-07T19:41:29.063Z,7.37
2023-03-07T19:43:57.924Z,8.30
2023-03-07T19:46:24.990Z,9.13
2023-03-07T19:48:51.964Z,9.80
2023-03-07T19:51:22.509Z,8.17
2023-03-07T19:53:49.470Z,9.40
2023-03-07T19:56:20.962Z,8.10
2023-03-07T19:58:47.826Z,12.93
2023-03-07T20:01:17.919Z,10.70
2023-03-07T20:03:45.479Z,9.87
2023-03-07T20:06:17.091Z,12.17
2023-03-07T20:08:47.023Z,11.37
2023-03-07T20:11:19.745Z,9.43
2023-03-07T20:13:48.172Z,13.73
2023-03-07T20:16:17.646Z,9.47
2023-03-07T20:18:49.058Z,9.37
2023-03-07T20:21:17.100Z,9.93
2023-03-07T20:23:45.822Z,10.40
2023-03-07T20:26:15.924Z,9.47
2023-03-07T20:28:43.279Z,8.23
2023-03-07T20:31:11.054Z,8.83
2023-03-07T20:33:46.732Z,10.37
2023-03-07T20:36:18.434Z,9.33
2023-03-07T20:38:49.133Z,8.50
2023-03-07T20:41:17.613Z,10.43
2023-03-07T20:43:44.461Z,10.87
2023-03-07T20:46:13.335Z,6.97
2023-03-07T20:48:41.200Z,7.20
2023-03-07T20:51:16.155Z,7.10
2023-03-07T20:53:43.216Z,9.53
2023-03-07T20:56:10.093Z,8.23
2023-03-07T20:58:37.075Z,6.57
2023-03-07T21:01:04.393Z,8.23
2023-03-07T21:03:31.315Z,7.97
2023-03-07T21:06:00.842Z,7.07
2023-03-07T21:08:30.480Z,5.33
2023-03-07T21:11:08.772Z,7.50
2023-03-07T21:13:37.999Z,9.47
2023-03-07T21:16:13.962Z,7.13
2023-03-07T21:18:41.084Z,7.03
2023-03-07T21:21:10.682Z,8.50
2023-03-07T21:23:37.760Z,8.70
2023-03-07T21:26:07.724Z,8.23
2023-03-07T21:28:35.384Z,9.83
2023-03-07T21:31:07.514Z,7.43
2023-03-07T21:33:35.369Z,6.73
2023-03-07T21:36:03.209Z,7.87
2023-03-07T21:38:30.986Z,8.80
2023-03-07T21:40:58.978Z,7.07
2023-03-07T21:43:26.262Z,7.00
2023-03-07T21:45:53.545Z,6.47
2023-03-07T21:48:20.773Z,7.50
2023-03-07T21:50:51.875Z,6.40
2023-03-07T21:53:19.403Z,6.97
2023-03-07T21:56:13.852Z,7.17
2023-03-07T21:58:41.002Z,9.80
2023-03-07T22:01:16.352Z,7.77
2023-03-07T22:03:44.056Z,6.27
2023-03-07T22:06:13.471Z,8.63
2023-03-07T22:08:41.040Z,11.07
2023-03-07T22:11:09.167Z,9.83
2023-03-07T22:13:38.333Z,8.97
2023-03-07T22:16:08.251Z,9.23
2023-03-07T22:18:35.287Z,8.73
2023-03-07T22:21:10.469Z,7.20
2023-03-07T22:23:37.479Z,11.23
2023-03-07T22:26:06.348Z,8.60
2023-03-07T22:28:33.858Z,8.10
2023-03-07T22:31:05.865Z,7.77
2023-03-07T22:33:33.517Z,10.07
2023-03-07T22:36:02.806Z,10.90
2023-03-07T22:38:30.181Z,8.47
2023-03-07T22:41:07.964Z,10.00
2023-03-07T22:43:36.254Z,9.13
2023-03-07T22:46:04.243Z,8.63
2023-03-07T22:48:31.702Z,8.00
2023-03-07T22:50:59.056Z,6.83
2023-03-07T22:53:30.843Z,8.67
2023-03-07T22:55:59.403Z,8.10
2023-03-07T22:58:26.702Z,7.13
2023-03-07T23:00:53.431Z,8.63
2023-03-07T23:03:20.250Z,8.20
2023-03-07T23:05:47.027Z,6.43
2023-03-07T23:08:14.151Z,10.13
2023-03-07T23:10:41.128Z,6.37
2023-03-07T23:13:07.957Z,7.30
2023-03-07T23:15:34.823Z,11.40
2023-03-07T23:18:01.568Z,8.50
2023-03-07T23:20:30.201Z,7.47
2023-03-07T23:22:57.044Z,8.53
2023-03-07T23:25:23.827Z,6.20
2023-03-07T23:27:50.786Z,7.40
2023-03-07T23:30:17.904Z,7.97
2023-03-07T23:32:45.025Z,7.97
2023-03-07T23:35:12.179Z,10.83
2023-03-07T23:37:39.236Z,6.30
2023-03-07T23:40:07.286Z,9.40
2023-03-07T23:42:34.130Z,10.00
2023-03-07T23:45:00.929Z,8.03
2023-03-07T23:47:27.754Z,9.27
2023-03-07T23:49:54.552Z,9.03
2023-03-07T23:52:21.423Z,7.73
2023-03-07T23:54:48.242Z,7.67
2023-03-07T23:57:15.057Z,9.97
2023-03-07T23:59:41.871Z,7.33
